Weather at Utley Field

Public forecast

Using degrees Fahrenheit for public forecast. Weather courtesy of forecast.io.

Closest aviation weather report (METAR) to Utley Field

Closest report is Austin Bergstrom International Airport, 13.3 nm (24.6 km) W. Retrieved 2021/05/11 00:02 UTC (47 minutes ago):

KAUS 110002Z 02014KT 10SM BKN018 21/18 A2988 RMK AO2 T02110178

Closest aviation forecast (TAF) to Utley Field

Closest forecast is Austin Bergstrom International Airport, 13.3 nm (24.6 km) W. Retrieved 2021-05-11 00:42 UTC (7 minutes ago):

TAF KAUS 102341Z 1100/1206 02013KT P6SM SCT040 BKN250 FM110400 01011KT P6SM OVC012 FM110700 01009KT 5SM BR VCSH OVC009 FM111700 01008KT P6SM -SHRA VCTS OVC006CB FM112100 05009KT P6SM -SHRA VCTS BKN014CB BKN150 PROB30 1122/1202 4SM TSRA BR OVC009CB